Etusivu
METAR-TAF:

METAR-TAF

Lentoasemat :

Sørkjosen, Norja

Leveyspiiri: 69-47N, Pituuspiiri: 020-58E, korkeus merenpinnasta: 0 m

Tämänhetkinen sää

Tämä raportti tehtiin 44 minuuttia sitten, kello 17.20 UTC
Tuuli 16 kn kaakosta
Lämpötila -10°C
Kosteus 61%
Ilmanpaine 1032 hPa
Näkyvyys 10 km tai enemmän
ei pilviä alle 1500 m:ssä eikä cumulonimbus-pilviä

METAR: ENSR 191720Z 15012KT CAVOK M10/M16 Q1032 WIND 1119FT 14016KT

Aika: 19:04 (18:04 UTC)


TAF: puuttuu

Säähavainnot ja -ennusteet yli 4000 lentoasemalta (METAR- ja TAF-raportit).

Käytössä olevat sääasemat on merkitty karttaan keltaisilla ja punaisilla pisteillä.

Aseta hiiri pisteen päälle nähdäksesi sääaseman nimen.

Klikkaa sitten nähdäksesi säähavainnot ja -ennusteet.

Kartan vaihtaminen: klikkaa mustalla rastilla varustettuja vihreitä pisteitä, niin voit zoomata sisään; viivalla varustettua vihreää pistettä, niin voit zoomata ulos tai vihreitä nuolia, niin pääset viereisille kartoille.


METAR-TAF: